sensor_id;sensor_type;location;lat;lon;timestamp;temperature;humidity
11091;DHT22;5599;52.210;21.046;2022-07-15T00:00:37;19.40;99.90
11091;DHT22;5599;52.210;21.046;2022-07-15T00:03:06;19.30;1.00
11091;DHT22;5599;52.210;21.046;2022-07-15T00:05:37;19.30;99.90
11091;DHT22;5599;52.210;21.046;2022-07-15T00:08:06;19.40;99.90
11091;DHT22;5599;52.210;21.046;2022-07-15T00:10:35;19.40;1.00
11091;DHT22;5599;52.210;21.046;2022-07-15T00:13:04;19.40;99.90
11091;DHT22;5599;52.210;21.046;2022-07-15T00:15:33;19.40;1.00
11091;DHT22;5599;52.210;21.046;2022-07-15T00:18:02;19.20;1.00
11091;DHT22;5599;52.210;21.046;2022-07-15T00:20:33;19.20;99.90
11091;DHT22;5599;52.210;21.046;2022-07-15T00:23:05;19.40;1.00
11091;DHT22;5599;52.210;21.046;2022-07-15T00:25:34;19.40;99.90
11091;DHT22;5599;52.210;21.046;2022-07-15T00:28:06;19.40;99.90
11091;DHT22;5599;52.210;21.046;2022-07-15T00:30:38;19.30;99.90
11091;DHT22;5599;52.210;21.046;2022-07-15T00:33:08;19.30;1.00
11091;DHT22;5599;52.210;21.046;2022-07-15T00:35:38;19.30;1.00
11091;DHT22;5599;52.210;21.046;2022-07-15T00:38:09;19.30;99.90
11091;DHT22;5599;52.210;21.046;2022-07-15T00:40:43;19.30;82.90
11091;DHT22;5599;52.210;21.046;2022-07-15T00:43:13;19.30;1.00
11091;DHT22;5599;52.210;21.046;2022-07-15T00:45:44;19.30;99.90
11091;DHT22;5599;52.210;21.046;2022-07-15T00:48:14;19.20;1.00
11091;DHT22;5599;52.210;21.046;2022-07-15T00:50:47;19.20;1.00
11091;DHT22;5599;52.210;21.046;2022-07-15T00:53:20;19.20;1.00
11091;DHT22;5599;52.210;21.046;2022-07-15T00:55:53;19.20;1.00
11091;DHT22;5599;52.210;21.046;2022-07-15T00:58:26;19.20;1.00
11091;DHT22;5599;52.210;21.046;2022-07-15T01:00:57;19.20;99.90
11091;DHT22;5599;52.210;21.046;2022-07-15T01:03:27;19.20;1.00
11091;DHT22;5599;52.210;21.046;2022-07-15T01:05:58;19.10;91.10
11091;DHT22;5599;52.210;21.046;2022-07-15T01:08:29;19.10;99.90
11091;DHT22;5599;52.210;21.046;2022-07-15T01:10:58;19.00;99.90
11091;DHT22;5599;52.210;21.046;2022-07-15T01:13:27;19.10;1.00
11091;DHT22;5599;52.210;21.046;2022-07-15T01:15:57;19.10;1.20
11091;DHT22;5599;52.210;21.046;2022-07-15T01:18:26;19.10;1.00
11091;DHT22;5599;52.210;21.046;2022-07-15T01:20:57;19.10;1.00
11091;DHT22;5599;52.210;21.046;2022-07-15T01:23:26;19.10;99.90
11091;DHT22;5599;52.210;21.046;2022-07-15T01:26:03;19.10;1.00
11091;DHT22;5599;52.210;21.046;2022-07-15T01:28:33;19.10;1.00
11091;DHT22;5599;52.210;21.046;2022-07-15T01:31:02;19.10;99.90
11091;DHT22;5599;52.210;21.046;2022-07-15T01:33:34;19.10;99.50
11091;DHT22;5599;52.210;21.046;2022-07-15T01:36:07;19.10;71.80
11091;DHT22;5599;52.210;21.046;2022-07-15T01:38:38;19.10;1.00
11091;DHT22;5599;52.210;21.046;2022-07-15T01:41:17;19.10;99.90
11091;DHT22;5599;52.210;21.046;2022-07-15T01:43:46;19.10;1.00
11091;DHT22;5599;52.210;21.046;2022-07-15T01:46:16;19.00;99.90
11091;DHT22;5599;52.210;21.046;2022-07-15T01:48:45;19.10;93.00
11091;DHT22;5599;52.210;21.046;2022-07-15T01:51:42;19.10;1.00
11091;DHT22;5599;52.210;21.046;2022-07-15T01:54:12;19.00;99.90
11091;DHT22;5599;52.210;21.046;2022-07-15T01:56:42;18.90;1.00
11091;DHT22;5599;52.210;21.046;2022-07-15T01:59:11;18.90;1.00
11091;DHT22;5599;52.210;21.046;2022-07-15T02:01:41;18.80;99.90
11091;DHT22;5599;52.210;21.046;2022-07-15T02:04:13;18.70;99.90
11091;DHT22;5599;52.210;21.046;2022-07-15T02:06:44;18.80;80.20
11091;DHT22;5599;52.210;21.046;2022-07-15T02:09:15;18.80;31.40
11091;DHT22;5599;52.210;21.046;2022-07-15T02:11:47;18.80;1.00
11091;DHT22;5599;52.210;21.046;2022-07-15T02:14:16;18.70;1.00
11091;DHT22;5599;52.210;21.046;2022-07-15T02:16:47;18.70;1.00
11091;DHT22;5599;52.210;21.046;2022-07-15T02:19:22;18.50;1.00
11091;DHT22;5599;52.210;21.046;2022-07-15T02:21:57;18.40;1.00
11091;DHT22;5599;52.210;21.046;2022-07-15T02:24:28;18.40;99.90
11091;DHT22;5599;52.210;21.046;2022-07-15T02:26:58;18.20;9.30
11091;DHT22;5599;52.210;21.046;2022-07-15T02:29:27;18.20;99.90
11091;DHT22;5599;52.210;21.046;2022-07-15T02:31:56;18.20;1.00
11091;DHT22;5599;52.210;21.046;2022-07-15T02:34:26;18.20;80.70
11091;DHT22;5599;52.210;21.046;2022-07-15T02:36:56;18.20;99.90
11091;DHT22;5599;52.210;21.046;2022-07-15T02:39:26;18.20;1.00
11091;DHT22;5599;52.210;21.046;2022-07-15T02:41:57;18.10;1.00
11091;DHT22;5599;52.210;21.046;2022-07-15T02:44:26;18.20;99.90
11091;DHT22;5599;52.210;21.046;2022-07-15T02:46:56;18.20;1.00
11091;DHT22;5599;52.210;21.046;2022-07-15T02:49:29;18.20;51.60
11091;DHT22;5599;52.210;21.046;2022-07-15T02:51:59;18.10;96.10
11091;DHT22;5599;52.210;21.046;2022-07-15T02:54:33;18.20;99.90
11091;DHT22;5599;52.210;21.046;2022-07-15T02:57:02;18.10;1.00
11091;DHT22;5599;52.210;21.046;2022-07-15T02:59:31;18.20;1.00
11091;DHT22;5599;52.210;21.046;2022-07-15T03:02:01;18.20;1.00
11091;DHT22;5599;52.210;21.046;2022-07-15T03:04:30;18.30;1.00
11091;DHT22;5599;52.210;21.046;2022-07-15T03:07:01;18.30;2.40
11091;DHT22;5599;52.210;21.046;2022-07-15T03:09:30;18.30;1.00
11091;DHT22;5599;52.210;21.046;2022-07-15T03:11:59;18.20;1.00
11091;DHT22;5599;52.210;21.046;2022-07-15T03:14:28;18.30;99.90
11091;DHT22;5599;52.210;21.046;2022-07-15T03:16:57;18.30;1.00
11091;DHT22;5599;52.210;21.046;2022-07-15T03:19:26;18.40;99.90
11091;DHT22;5599;52.210;21.046;2022-07-15T03:21:55;18.50;1.00
11091;DHT22;5599;52.210;21.046;2022-07-15T03:24:26;18.40;99.90
11091;DHT22;5599;52.210;21.046;2022-07-15T03:26:57;18.50;99.90
11091;DHT22;5599;52.210;21.046;2022-07-15T03:29:27;18.60;99.90
11091;DHT22;5599;52.210;21.046;2022-07-15T03:31:57;18.60;1.00
11091;DHT22;5599;52.210;21.046;2022-07-15T03:34:26;18.70;1.00
11091;DHT22;5599;52.210;21.046;2022-07-15T03:36:55;18.70;99.90
11091;DHT22;5599;52.210;21.046;2022-07-15T03:39:28;18.70;99.90
11091;DHT22;5599;52.210;21.046;2022-07-15T03:41:57;18.70;1.00
11091;DHT22;5599;52.210;21.046;2022-07-15T03:44:26;19.00;1.00
11091;DHT22;5599;52.210;21.046;2022-07-15T03:46:56;19.50;99.90
11091;DHT22;5599;52.210;21.046;2022-07-15T03:49:25;20.10;1.00
11091;DHT22;5599;52.210;21.046;2022-07-15T03:51:54;20.60;99.90
11091;DHT22;5599;52.210;21.046;2022-07-15T03:54:23;21.10;1.00
11091;DHT22;5599;52.210;21.046;2022-07-15T03:56:54;21.60;99.90
11091;DHT22;5599;52.210;21.046;2022-07-15T03:59:23;22.10;1.00
11091;DHT22;5599;52.210;21.046;2022-07-15T04:01:53;22.50;1.00
11091;DHT22;5599;52.210;21.046;2022-07-15T04:04:22;22.90;99.90
11091;DHT22;5599;52.210;21.046;2022-07-15T04:06:51;23.40;99.90
11091;DHT22;5599;52.210;21.046;2022-07-15T04:09:23;23.70;1.00
11091;DHT22;5599;52.210;21.046;2022-07-15T04:11:53;24.20;99.90
11091;DHT22;5599;52.210;21.046;2022-07-15T04:14:23;24.50;99.90
11091;DHT22;5599;52.210;21.046;2022-07-15T04:16:51;24.80;1.00
11091;DHT22;5599;52.210;21.046;2022-07-15T04:19:33;25.10;1.00
11091;DHT22;5599;52.210;21.046;2022-07-15T04:22:04;25.60;57.10
11091;DHT22;5599;52.210;21.046;2022-07-15T04:24:39;25.90;99.90
11091;DHT22;5599;52.210;21.046;2022-07-15T04:27:13;26.10;39.10
11091;DHT22;5599;52.210;21.046;2022-07-15T04:29:44;26.40;1.00
11091;DHT22;5599;52.210;21.046;2022-07-15T04:32:15;26.60;1.00
11091;DHT22;5599;52.210;21.046;2022-07-15T04:34:49;26.90;99.90
11091;DHT22;5599;52.210;21.046;2022-07-15T04:37:19;27.00;99.90
11091;DHT22;5599;52.210;21.046;2022-07-15T04:39:53;27.40;1.00
11091;DHT22;5599;52.210;21.046;2022-07-15T04:42:24;27.60;99.90
11091;DHT22;5599;52.210;21.046;2022-07-15T04:44:53;28.00;99.90
11091;DHT22;5599;52.210;21.046;2022-07-15T04:47:23;28.00;1.00
11091;DHT22;5599;52.210;21.046;2022-07-15T04:49:57;28.30;99.90
11091;DHT22;5599;52.210;21.046;2022-07-15T04:52:46;28.60;99.90
11091;DHT22;5599;52.210;21.046;2022-07-15T04:55:16;29.00;1.00
11091;DHT22;5599;52.210;21.046;2022-07-15T04:57:52;29.30;1.00
11091;DHT22;5599;52.210;21.046;2022-07-15T05:00:22;29.60;99.90
11091;DHT22;5599;52.210;21.046;2022-07-15T05:02:52;29.80;95.70
11091;DHT22;5599;52.210;21.046;2022-07-15T05:05:21;29.80;99.90
11091;DHT22;5599;52.210;21.046;2022-07-15T05:07:51;30.00;99.90
11091;DHT22;5599;52.210;21.046;2022-07-15T05:10:20;30.10;99.90
11091;DHT22;5599;52.210;21.046;2022-07-15T05:12:58;30.40;99.90
11091;DHT22;5599;52.210;21.046;2022-07-15T05:15:27;30.60;1.00
11091;DHT22;5599;52.210;21.046;2022-07-15T05:18:02;30.50;99.90
11091;DHT22;5599;52.210;21.046;2022-07-15T05:20:32;30.50;1.00
11091;DHT22;5599;52.210;21.046;2022-07-15T05:23:01;30.70;1.00
11091;DHT22;5599;52.210;21.046;2022-07-15T05:25:35;30.80;99.90
11091;DHT22;5599;52.210;21.046;2022-07-15T05:28:06;31.20;99.90
11091;DHT22;5599;52.210;21.046;2022-07-15T05:30:36;31.20;99.90
11091;DHT22;5599;52.210;21.046;2022-07-15T05:33:07;31.40;99.90
11091;DHT22;5599;52.210;21.046;2022-07-15T05:35:37;31.40;99.90
11091;DHT22;5599;52.210;21.046;2022-07-15T05:38:08;31.80;99.90
11091;DHT22;5599;52.210;21.046;2022-07-15T05:40:38;31.80;99.90
11091;DHT22;5599;52.210;21.046;2022-07-15T05:43:08;32.00;99.90
11091;DHT22;5599;52.210;21.046;2022-07-15T05:45:40;32.20;1.00
11091;DHT22;5599;52.210;21.046;2022-07-15T05:48:09;32.50;1.00
11091;DHT22;5599;52.210;21.046;2022-07-15T05:50:47;32.40;1.00
11091;DHT22;5599;52.210;21.046;2022-07-15T05:53:17;32.40;1.00
11091;DHT22;5599;52.210;21.046;2022-07-15T05:55:46;32.50;1.00
11091;DHT22;5599;52.210;21.046;2022-07-15T05:58:20;32.60;1.00
11091;DHT22;5599;52.210;21.046;2022-07-15T06:00:51;32.80;1.00
11091;DHT22;5599;52.210;21.046;2022-07-15T06:03:22;32.80;1.00
11091;DHT22;5599;52.210;21.046;2022-07-15T06:05:51;32.50;1.00
11091;DHT22;5599;52.210;21.046;2022-07-15T06:08:21;32.20;1.00
11091;DHT22;5599;52.210;21.046;2022-07-15T06:10:50;32.00;99.90
11091;DHT22;5599;52.210;21.046;2022-07-15T06:13:23;31.90;1.00
11091;DHT22;5599;52.210;21.046;2022-07-15T06:15:52;31.30;1.00
11091;DHT22;5599;52.210;21.046;2022-07-15T06:18:24;30.70;1.00
11091;DHT22;5599;52.210;21.046;2022-07-15T06:20:55;30.20;1.00
11091;DHT22;5599;52.210;21.046;2022-07-15T06:23:25;29.50;1.00
11091;DHT22;5599;52.210;21.046;2022-07-15T06:25:55;29.70;1.00
11091;DHT22;5599;52.210;21.046;2022-07-15T06:28:27;29.50;1.00
11091;DHT22;5599;52.210;21.046;2022-07-15T06:30:57;29.30;1.00
11091;DHT22;5599;52.210;21.046;2022-07-15T06:33:27;29.50;1.00
11091;DHT22;5599;52.210;21.046;2022-07-15T06:35:56;30.10;1.00
11091;DHT22;5599;52.210;21.046;2022-07-15T06:38:25;30.50;1.00
11091;DHT22;5599;52.210;21.046;2022-07-15T06:40:55;30.80;1.00
11091;DHT22;5599;52.210;21.046;2022-07-15T06:43:27;31.00;1.00
11091;DHT22;5599;52.210;21.046;2022-07-15T06:46:08;31.50;1.00
11091;DHT22;5599;52.210;21.046;2022-07-15T06:48:40;31.80;1.00
11091;DHT22;5599;52.210;21.046;2022-07-15T06:51:10;31.90;1.00
11091;DHT22;5599;52.210;21.046;2022-07-15T06:53:40;31.90;1.00
11091;DHT22;5599;52.210;21.046;2022-07-15T06:56:10;32.10;1.00
11091;DHT22;5599;52.210;21.046;2022-07-15T06:58:42;32.10;1.00
11091;DHT22;5599;52.210;21.046;2022-07-15T07:01:12;32.30;1.00
11091;DHT22;5599;52.210;21.046;2022-07-15T07:03:42;32.60;1.00
11091;DHT22;5599;52.210;21.046;2022-07-15T07:06:28;32.70;1.00
11091;DHT22;5599;52.210;21.046;2022-07-15T07:08:58;32.80;1.00
11091;DHT22;5599;52.210;21.046;2022-07-15T07:11:29;33.20;1.00
11091;DHT22;5599;52.210;21.046;2022-07-15T07:14:01;32.90;1.00
11091;DHT22;5599;52.210;21.046;2022-07-15T07:16:31;32.50;1.00
11091;DHT22;5599;52.210;21.046;2022-07-15T07:19:01;32.50;1.00
11091;DHT22;5599;52.210;21.046;2022-07-15T07:21:30;32.70;1.00
11091;DHT22;5599;52.210;21.046;2022-07-15T07:24:00;32.80;1.00
11091;DHT22;5599;52.210;21.046;2022-07-15T07:26:29;32.80;1.00
11091;DHT22;5599;52.210;21.046;2022-07-15T07:28:58;33.00;1.00
11091;DHT22;5599;52.210;21.046;2022-07-15T07:31:29;32.90;1.00
11091;DHT22;5599;52.210;21.046;2022-07-15T07:33:58;32.80;1.00
11091;DHT22;5599;52.210;21.046;2022-07-15T07:36:27;32.50;1.00
11091;DHT22;5599;52.210;21.046;2022-07-15T07:38:57;32.50;1.00
11091;DHT22;5599;52.210;21.046;2022-07-15T07:41:26;32.40;1.00
11091;DHT22;5599;52.210;21.046;2022-07-15T07:43:56;32.30;1.00
11091;DHT22;5599;52.210;21.046;2022-07-15T07:46:25;32.50;1.00
11091;DHT22;5599;52.210;21.046;2022-07-15T07:48:56;32.30;1.00
11091;DHT22;5599;52.210;21.046;2022-07-15T07:51:46;31.70;1.00
11091;DHT22;5599;52.210;21.046;2022-07-15T07:54:15;31.80;1.00
11091;DHT22;5599;52.210;21.046;2022-07-15T07:56:45;31.80;1.00
11091;DHT22;5599;52.210;21.046;2022-07-15T07:59:14;31.70;1.00
11091;DHT22;5599;52.210;21.046;2022-07-15T08:01:43;31.40;1.00
11091;DHT22;5599;52.210;21.046;2022-07-15T08:04:14;31.20;1.00
11091;DHT22;5599;52.210;21.046;2022-07-15T08:06:43;31.30;1.00
11091;DHT22;5599;52.210;21.046;2022-07-15T08:09:13;31.10;1.00
11091;DHT22;5599;52.210;21.046;2022-07-15T08:11:42;30.60;1.00
11091;DHT22;5599;52.210;21.046;2022-07-15T08:14:12;29.80;1.00
11091;DHT22;5599;52.210;21.046;2022-07-15T08:16:41;29.20;1.00
11091;DHT22;5599;52.210;21.046;2022-07-15T08:19:15;28.90;1.00
11091;DHT22;5599;52.210;21.046;2022-07-15T08:21:45;28.90;1.00
11091;DHT22;5599;52.210;21.046;2022-07-15T08:24:15;29.10;1.00
11091;DHT22;5599;52.210;21.046;2022-07-15T08:26:44;29.10;1.00
11091;DHT22;5599;52.210;21.046;2022-07-15T08:29:13;29.10;1.00
11091;DHT22;5599;52.210;21.046;2022-07-15T08:31:43;28.80;1.00
11091;DHT22;5599;52.210;21.046;2022-07-15T08:34:15;28.30;1.00
11091;DHT22;5599;52.210;21.046;2022-07-15T08:36:44;28.20;1.00
11091;DHT22;5599;52.210;21.046;2022-07-15T08:39:14;28.30;1.00
11091;DHT22;5599;52.210;21.046;2022-07-15T08:41:43;28.70;1.00
11091;DHT22;5599;52.210;21.046;2022-07-15T08:44:13;29.20;1.00
11091;DHT22;5599;52.210;21.046;2022-07-15T08:46:46;29.50;1.00
11091;DHT22;5599;52.210;21.046;2022-07-15T08:49:17;29.40;1.00
11091;DHT22;5599;52.210;21.046;2022-07-15T08:51:48;29.40;1.00
11091;DHT22;5599;52.210;21.046;2022-07-15T08:54:21;29.10;1.00
11091;DHT22;5599;52.210;21.046;2022-07-15T08:56:51;28.90;1.00
11091;DHT22;5599;52.210;21.046;2022-07-15T08:59:20;28.50;1.00
11091;DHT22;5599;52.210;21.046;2022-07-15T09:01:49;28.30;1.00
11091;DHT22;5599;52.210;21.046;2022-07-15T09:04:21;28.60;1.00
11091;DHT22;5599;52.210;21.046;2022-07-15T09:06:50;29.00;1.00
11091;DHT22;5599;52.210;21.046;2022-07-15T09:09:28;29.20;1.00
11091;DHT22;5599;52.210;21.046;2022-07-15T09:12:01;29.40;1.00
11091;DHT22;5599;52.210;21.046;2022-07-15T09:14:41;29.20;1.00
11091;DHT22;5599;52.210;21.046;2022-07-15T09:17:23;29.10;1.00
11091;DHT22;5599;52.210;21.046;2022-07-15T09:20:07;29.50;1.00
11091;DHT22;5599;52.210;21.046;2022-07-15T09:22:50;29.90;1.00
11091;DHT22;5599;52.210;21.046;2022-07-15T09:25:20;30.00;1.00
11091;DHT22;5599;52.210;21.046;2022-07-15T09:27:50;30.20;1.00
11091;DHT22;5599;52.210;21.046;2022-07-15T09:30:22;30.00;1.00
11091;DHT22;5599;52.210;21.046;2022-07-15T09:33:10;29.40;1.00
11091;DHT22;5599;52.210;21.046;2022-07-15T09:36:19;28.40;1.00
11091;DHT22;5599;52.210;21.046;2022-07-15T09:38:51;27.70;1.00
11091;DHT22;5599;52.210;21.046;2022-07-15T09:41:28;27.40;1.00
11091;DHT22;5599;52.210;21.046;2022-07-15T09:44:02;27.60;1.00
11091;DHT22;5599;52.210;21.046;2022-07-15T09:46:40;28.00;1.00
11091;DHT22;5599;52.210;21.046;2022-07-15T09:49:15;28.50;1.00
11091;DHT22;5599;52.210;21.046;2022-07-15T09:51:48;28.80;1.00
11091;DHT22;5599;52.210;21.046;2022-07-15T09:54:18;28.50;1.00
11091;DHT22;5599;52.210;21.046;2022-07-15T09:56:48;28.20;1.00
11091;DHT22;5599;52.210;21.046;2022-07-15T09:59:19;27.80;1.00
11091;DHT22;5599;52.210;21.046;2022-07-15T10:01:48;27.70;1.00
11091;DHT22;5599;52.210;21.046;2022-07-15T10:04:20;27.80;1.00
11091;DHT22;5599;52.210;21.046;2022-07-15T10:06:52;27.80;1.00
11091;DHT22;5599;52.210;21.046;2022-07-15T10:09:42;27.80;1.00
11091;DHT22;5599;52.210;21.046;2022-07-15T10:12:16;27.70;1.00
11091;DHT22;5599;52.210;21.046;2022-07-15T10:15:06;27.70;1.00
11091;DHT22;5599;52.210;21.046;2022-07-15T10:17:58;27.50;1.00
11091;DHT22;5599;52.210;21.046;2022-07-15T10:20:44;27.50;1.00
11091;DHT22;5599;52.210;21.046;2022-07-15T10:23:34;27.30;1.00
11091;DHT22;5599;52.210;21.046;2022-07-15T10:26:22;27.20;1.00
11091;DHT22;5599;52.210;21.046;2022-07-15T10:29:00;26.80;1.00
11091;DHT22;5599;52.210;21.046;2022-07-15T10:31:32;26.80;1.00
11091;DHT22;5599;52.210;21.046;2022-07-15T10:34:19;26.60;1.00
11091;DHT22;5599;52.210;21.046;2022-07-15T10:37:01;26.20;1.00
11091;DHT22;5599;52.210;21.046;2022-07-15T10:39:54;26.00;1.00
11091;DHT22;5599;52.210;21.046;2022-07-15T10:42:25;25.80;1.00
11091;DHT22;5599;52.210;21.046;2022-07-15T10:45:07;25.80;1.00
11091;DHT22;5599;52.210;21.046;2022-07-15T10:47:37;25.50;1.00
11091;DHT22;5599;52.210;21.046;2022-07-15T10:50:37;25.20;1.00
11091;DHT22;5599;52.210;21.046;2022-07-15T10:53:20;25.10;1.00
11091;DHT22;5599;52.210;21.046;2022-07-15T10:55:52;24.80;1.00
11091;DHT22;5599;52.210;21.046;2022-07-15T10:58:22;24.50;1.00
11091;DHT22;5599;52.210;21.046;2022-07-15T11:00:52;24.30;1.00
11091;DHT22;5599;52.210;21.046;2022-07-15T11:03:22;24.20;1.00
11091;DHT22;5599;52.210;21.046;2022-07-15T11:06:04;24.40;1.00
11091;DHT22;5599;52.210;21.046;2022-07-15T11:08:48;24.40;1.00
11091;DHT22;5599;52.210;21.046;2022-07-15T11:11:50;24.50;1.00
11091;DHT22;5599;52.210;21.046;2022-07-15T11:14:43;24.70;1.00
11091;DHT22;5599;52.210;21.046;2022-07-15T11:17:13;25.00;1.00
11091;DHT22;5599;52.210;21.046;2022-07-15T11:19:49;25.10;1.00
11091;DHT22;5599;52.210;21.046;2022-07-15T11:22:20;25.30;1.00
11091;DHT22;5599;52.210;21.046;2022-07-15T11:24:50;25.40;1.00
11091;DHT22;5599;52.210;21.046;2022-07-15T11:27:23;25.30;1.00
11091;DHT22;5599;52.210;21.046;2022-07-15T11:29:54;25.10;1.00
11091;DHT22;5599;52.210;21.046;2022-07-15T11:32:28;25.00;1.00
11091;DHT22;5599;52.210;21.046;2022-07-15T11:35:00;25.00;1.00
11091;DHT22;5599;52.210;21.046;2022-07-15T11:37:31;24.90;1.00
11091;DHT22;5599;52.210;21.046;2022-07-15T11:40:08;24.80;1.00
11091;DHT22;5599;52.210;21.046;2022-07-15T11:42:39;24.50;1.00
11091;DHT22;5599;52.210;21.046;2022-07-15T11:45:33;24.60;1.00
11091;DHT22;5599;52.210;21.046;2022-07-15T11:48:04;24.70;1.00
11091;DHT22;5599;52.210;21.046;2022-07-15T11:50:35;24.80;1.00
11091;DHT22;5599;52.210;21.046;2022-07-15T11:53:12;24.80;1.00
11091;DHT22;5599;52.210;21.046;2022-07-15T11:55:49;24.90;1.00
11091;DHT22;5599;52.210;21.046;2022-07-15T11:58:27;25.10;1.00
11091;DHT22;5599;52.210;21.046;2022-07-15T12:00:57;25.40;1.00
11091;DHT22;5599;52.210;21.046;2022-07-15T12:03:31;25.30;1.00
11091;DHT22;5599;52.210;21.046;2022-07-15T12:06:07;25.40;1.00
11091;DHT22;5599;52.210;21.046;2022-07-15T12:08:41;25.40;1.00
11091;DHT22;5599;52.210;21.046;2022-07-15T12:11:17;25.30;1.00
11091;DHT22;5599;52.210;21.046;2022-07-15T12:13:51;25.30;1.00
11091;DHT22;5599;52.210;21.046;2022-07-15T12:16:24;25.40;1.00
11091;DHT22;5599;52.210;21.046;2022-07-15T12:18:56;25.30;1.00
11091;DHT22;5599;52.210;21.046;2022-07-15T12:21:26;25.00;1.00
11091;DHT22;5599;52.210;21.046;2022-07-15T12:24:04;24.70;1.00
11091;DHT22;5599;52.210;21.046;2022-07-15T12:26:35;24.60;1.00
11091;DHT22;5599;52.210;21.046;2022-07-15T12:29:10;24.80;1.00
11091;DHT22;5599;52.210;21.046;2022-07-15T12:31:40;25.00;1.00
11091;DHT22;5599;52.210;21.046;2022-07-15T12:34:11;25.10;1.00
11091;DHT22;5599;52.210;21.046;2022-07-15T12:36:41;25.40;1.00
11091;DHT22;5599;52.210;21.046;2022-07-15T12:39:13;25.60;1.00
11091;DHT22;5599;52.210;21.046;2022-07-15T12:41:59;25.40;1.00
11091;DHT22;5599;52.210;21.046;2022-07-15T12:44:31;25.30;1.00
11091;DHT22;5599;52.210;21.046;2022-07-15T12:47:04;25.20;1.00
11091;DHT22;5599;52.210;21.046;2022-07-15T12:49:38;25.10;1.00
11091;DHT22;5599;52.210;21.046;2022-07-15T12:52:16;25.10;1.00
11091;DHT22;5599;52.210;21.046;2022-07-15T12:54:46;25.20;1.00
11091;DHT22;5599;52.210;21.046;2022-07-15T12:57:23;25.10;1.00
11091;DHT22;5599;52.210;21.046;2022-07-15T12:59:58;25.20;1.00
11091;DHT22;5599;52.210;21.046;2022-07-15T13:02:28;25.20;1.00
11091;DHT22;5599;52.210;21.046;2022-07-15T13:04:59;25.30;1.00
11091;DHT22;5599;52.210;21.046;2022-07-15T13:07:29;25.30;1.00
11091;DHT22;5599;52.210;21.046;2022-07-15T13:09:58;25.30;1.00
11091;DHT22;5599;52.210;21.046;2022-07-15T13:12:28;25.30;1.00
11091;DHT22;5599;52.210;21.046;2022-07-15T13:14:59;25.30;1.00
11091;DHT22;5599;52.210;21.046;2022-07-15T13:17:29;24.90;1.00
11091;DHT22;5599;52.210;21.046;2022-07-15T13:19:58;24.60;1.00
11091;DHT22;5599;52.210;21.046;2022-07-15T13:22:30;24.60;1.00
11091;DHT22;5599;52.210;21.046;2022-07-15T13:24:59;24.60;1.00
11091;DHT22;5599;52.210;21.046;2022-07-15T13:27:29;24.70;1.00
11091;DHT22;5599;52.210;21.046;2022-07-15T13:29:59;24.70;1.00
11091;DHT22;5599;52.210;21.046;2022-07-15T13:32:29;24.70;1.00
11091;DHT22;5599;52.210;21.046;2022-07-15T13:34:58;24.70;1.00
11091;DHT22;5599;52.210;21.046;2022-07-15T13:37:28;24.50;1.00
11091;DHT22;5599;52.210;21.046;2022-07-15T13:39:57;24.50;1.00
11091;DHT22;5599;52.210;21.046;2022-07-15T13:42:27;24.40;99.90
11091;DHT22;5599;52.210;21.046;2022-07-15T13:44:58;24.10;1.00
11091;DHT22;5599;52.210;21.046;2022-07-15T13:47:28;23.90;1.00
11091;DHT22;5599;52.210;21.046;2022-07-15T13:49:58;23.80;1.00
11091;DHT22;5599;52.210;21.046;2022-07-15T13:52:46;23.80;1.00
11091;DHT22;5599;52.210;21.046;2022-07-15T13:55:17;23.90;1.00
11091;DHT22;5599;52.210;21.046;2022-07-15T13:57:46;24.00;1.00
11091;DHT22;5599;52.210;21.046;2022-07-15T14:00:20;24.00;1.00
11091;DHT22;5599;52.210;21.046;2022-07-15T14:02:50;23.90;1.00
11091;DHT22;5599;52.210;21.046;2022-07-15T14:05:21;24.20;1.00
11091;DHT22;5599;52.210;21.046;2022-07-15T14:07:51;24.00;1.00
11091;DHT22;5599;52.210;21.046;2022-07-15T14:10:21;24.10;1.00
11091;DHT22;5599;52.210;21.046;2022-07-15T14:12:50;24.10;1.00
11091;DHT22;5599;52.210;21.046;2022-07-15T14:15:22;24.10;1.00
11091;DHT22;5599;52.210;21.046;2022-07-15T14:18:04;23.90;1.00
11091;DHT22;5599;52.210;21.046;2022-07-15T14:20:34;23.80;1.00
11091;DHT22;5599;52.210;21.046;2022-07-15T14:23:04;23.70;1.00
11091;DHT22;5599;52.210;21.046;2022-07-15T14:25:33;23.70;1.00
11091;DHT22;5599;52.210;21.046;2022-07-15T14:28:02;23.80;1.00
11091;DHT22;5599;52.210;21.046;2022-07-15T14:30:33;23.90;1.00
11091;DHT22;5599;52.210;21.046;2022-07-15T14:33:03;24.00;1.00
11091;DHT22;5599;52.210;21.046;2022-07-15T14:35:33;23.90;1.00
11091;DHT22;5599;52.210;21.046;2022-07-15T14:38:03;23.90;1.00
11091;DHT22;5599;52.210;21.046;2022-07-15T14:40:33;23.90;1.00
11091;DHT22;5599;52.210;21.046;2022-07-15T14:43:02;23.80;1.00
11091;DHT22;5599;52.210;21.046;2022-07-15T14:45:33;23.70;1.00
11091;DHT22;5599;52.210;21.046;2022-07-15T14:48:02;23.70;1.00
11091;DHT22;5599;52.210;21.046;2022-07-15T14:50:33;23.60;1.00
11091;DHT22;5599;52.210;21.046;2022-07-15T14:53:02;23.70;1.00
11091;DHT22;5599;52.210;21.046;2022-07-15T14:55:31;23.80;1.00
11091;DHT22;5599;52.210;21.046;2022-07-15T14:58:00;23.80;1.00
11091;DHT22;5599;52.210;21.046;2022-07-15T15:00:29;23.80;1.00
11091;DHT22;5599;52.210;21.046;2022-07-15T15:03:00;23.80;1.00
11091;DHT22;5599;52.210;21.046;2022-07-15T15:05:30;23.70;1.00
11091;DHT22;5599;52.210;21.046;2022-07-15T15:07:59;23.50;1.00
11091;DHT22;5599;52.210;21.046;2022-07-15T15:10:28;23.50;1.00
11091;DHT22;5599;52.210;21.046;2022-07-15T15:12:57;23.50;1.00
11091;DHT22;5599;52.210;21.046;2022-07-15T15:15:29;23.30;1.00
11091;DHT22;5599;52.210;21.046;2022-07-15T15:18:00;23.30;1.00
11091;DHT22;5599;52.210;21.046;2022-07-15T15:20:30;23.30;1.00
11091;DHT22;5599;52.210;21.046;2022-07-15T15:23:00;23.40;1.00
11091;DHT22;5599;52.210;21.046;2022-07-15T15:25:29;23.40;1.00
11091;DHT22;5599;52.210;21.046;2022-07-15T15:28:15;23.40;1.00
11091;DHT22;5599;52.210;21.046;2022-07-15T15:30:45;23.30;1.00
11091;DHT22;5599;52.210;21.046;2022-07-15T15:33:16;23.30;1.00
11091;DHT22;5599;52.210;21.046;2022-07-15T15:35:45;23.10;1.00
11091;DHT22;5599;52.210;21.046;2022-07-15T15:38:15;23.10;1.00
11091;DHT22;5599;52.210;21.046;2022-07-15T15:40:44;23.00;1.00
11091;DHT22;5599;52.210;21.046;2022-07-15T15:43:13;22.80;1.00
11091;DHT22;5599;52.210;21.046;2022-07-15T15:45:43;22.80;1.00
11091;DHT22;5599;52.210;21.046;2022-07-15T15:48:13;22.80;1.00
11091;DHT22;5599;52.210;21.046;2022-07-15T15:50:49;22.90;1.00
11091;DHT22;5599;52.210;21.046;2022-07-15T15:53:18;22.90;1.00
11091;DHT22;5599;52.210;21.046;2022-07-15T15:55:48;22.90;1.00
11091;DHT22;5599;52.210;21.046;2022-07-15T15:58:17;22.80;1.00
11091;DHT22;5599;52.210;21.046;2022-07-15T16:00:50;22.70;1.00
11091;DHT22;5599;52.210;21.046;2022-07-15T16:03:19;22.60;1.00
11091;DHT22;5599;52.210;21.046;2022-07-15T16:05:52;22.50;1.00
11091;DHT22;5599;52.210;21.046;2022-07-15T16:08:21;22.50;1.00
11091;DHT22;5599;52.210;21.046;2022-07-15T16:10:51;22.60;1.00
11091;DHT22;5599;52.210;21.046;2022-07-15T16:13:20;22.80;1.00